createdAt,value
2023-03-24T00:00:29.102Z,13.35
2023-03-24T00:01:10.913Z,13.34
2023-03-24T00:01:53.000Z,13.41
2023-03-24T00:02:37.782Z,13.44
2023-03-24T00:03:19.985Z,13.46
2023-03-24T00:04:02.031Z,13.40
2023-03-24T00:04:44.105Z,13.50
2023-03-24T00:05:28.490Z,13.52
2023-03-24T00:06:13.701Z,13.45
2023-03-24T00:06:55.524Z,13.55
2023-03-24T00:07:39.956Z,13.50
2023-03-24T00:08:22.580Z,13.58
2023-03-24T00:09:04.652Z,13.59
2023-03-24T00:09:46.542Z,13.61
2023-03-24T00:10:34.435Z,13.62
2023-03-24T00:11:19.379Z,13.59
2023-03-24T00:12:01.163Z,13.65
2023-03-24T00:12:43.002Z,13.61
2023-03-24T00:13:24.749Z,13.68
2023-03-24T00:14:06.517Z,13.63
2023-03-24T00:14:48.302Z,13.71
2023-03-24T00:15:30.491Z,13.74
2023-03-24T00:16:14.166Z,13.76
2023-03-24T00:16:58.560Z,13.75
2023-03-24T00:17:40.900Z,13.77
2023-03-24T00:18:25.837Z,13.78
2023-03-24T00:19:07.706Z,13.80
2023-03-24T00:19:50.236Z,13.80
2023-03-24T00:20:32.890Z,13.84
2023-03-24T00:21:15.742Z,13.84
2023-03-24T00:21:57.451Z,13.82
2023-03-24T00:22:42.317Z,13.73
2023-03-24T00:23:26.428Z,13.75
2023-03-24T00:24:09.796Z,13.82
2023-03-24T00:24:51.529Z,13.74
2023-03-24T00:25:36.296Z,13.77
2023-03-24T00:26:18.341Z,13.77
2023-03-24T00:27:01.088Z,13.76
2023-03-24T00:27:44.878Z,13.44
2023-03-24T00:28:26.645Z,13.79
2023-03-24T00:29:13.961Z,13.78
2023-03-24T00:29:58.980Z,13.81
2023-03-24T00:30:41.550Z,13.87
2023-03-24T00:31:24.580Z,13.87
2023-03-24T00:32:08.050Z,13.88
2023-03-24T00:32:51.098Z,13.72
2023-03-24T00:33:35.001Z,13.84
2023-03-24T00:34:18.240Z,13.74
2023-03-24T00:35:00.919Z,13.81
2023-03-24T00:35:44.861Z,13.78
2023-03-24T00:36:29.042Z,13.84
2023-03-24T00:37:10.968Z,13.84
2023-03-24T00:37:52.750Z,13.83
2023-03-24T00:38:34.989Z,13.83
2023-03-24T00:39:17.977Z,13.74
2023-03-24T00:39:59.660Z,13.83
2023-03-24T00:40:46.272Z,13.79
2023-03-24T00:41:29.040Z,13.71
2023-03-24T00:42:10.911Z,13.76
2023-03-24T00:42:52.904Z,13.74
2023-03-24T00:43:35.214Z,13.71
2023-03-24T00:44:19.922Z,13.66
2023-03-24T00:45:03.962Z,13.59
2023-03-24T00:45:46.399Z,13.60
2023-03-24T00:46:28.646Z,13.45
2023-03-24T00:47:11.537Z,13.41
2023-03-24T00:47:58.147Z,13.47
2023-03-24T00:48:42.062Z,13.37
2023-03-24T00:49:57.546Z,13.39
2023-03-24T00:50:39.485Z,13.30
2023-03-24T00:51:21.193Z,13.30
2023-03-24T00:52:09.877Z,13.23
2023-03-24T00:52:51.986Z,13.22
2023-03-24T00:53:35.021Z,13.19
2023-03-24T00:54:21.777Z,13.20
2023-03-24T00:55:06.446Z,13.19
2023-03-24T00:55:49.679Z,13.11
2023-03-24T00:56:34.280Z,13.14
2023-03-24T00:57:21.970Z,13.20
2023-03-24T00:58:04.322Z,13.16
2023-03-24T00:58:46.122Z,13.19
2023-03-24T00:59:29.478Z,13.19
2023-03-24T01:00:14.447Z,13.18
2023-03-24T01:00:57.532Z,13.18
2023-03-24T01:01:41.250Z,13.20
2023-03-24T01:02:27.902Z,13.21
2023-03-24T01:03:09.874Z,13.17
2023-03-24T01:03:56.607Z,13.20
2023-03-24T01:04:41.525Z,13.08
2023-03-24T01:05:31.214Z,13.11
2023-03-24T01:06:13.211Z,13.03
2023-03-24T01:06:58.281Z,13.19
2023-03-24T01:07:42.357Z,13.16
2023-03-24T01:08:25.659Z,13.11
2023-03-24T01:09:07.956Z,13.15
2023-03-24T01:09:57.590Z,13.09
2023-03-24T01:10:50.383Z,13.06
2023-03-24T01:11:38.446Z,13.17
2023-03-24T01:12:21.620Z,13.04
2023-03-24T01:13:03.959Z,13.11
2023-03-24T01:13:45.796Z,13.20
2023-03-24T01:14:27.573Z,13.14
2023-03-24T01:15:15.059Z,13.21
2023-03-24T01:15:57.815Z,13.16
2023-03-24T01:16:40.629Z,13.20
2023-03-24T01:17:22.522Z,13.16
2023-03-24T01:18:04.556Z,13.19
2023-03-24T01:18:46.441Z,13.17
2023-03-24T01:19:29.150Z,13.04
2023-03-24T01:20:11.803Z,12.94
2023-03-24T01:20:54.181Z,12.99
2023-03-24T01:21:37.436Z,12.99
2023-03-24T01:22:20.514Z,13.07
2023-03-24T01:23:05.660Z,13.07
2023-03-24T01:23:47.748Z,13.03
2023-03-24T01:24:29.603Z,13.02
2023-03-24T01:25:23.192Z,13.09
2023-03-24T01:26:07.643Z,13.07
2023-03-24T01:26:49.312Z,13.02
2023-03-24T01:27:31.747Z,12.99
2023-03-24T01:28:15.639Z,12.98
2023-03-24T01:28:57.628Z,12.87
2023-03-24T01:29:40.583Z,13.00
2023-03-24T01:30:26.590Z,12.95
2023-03-24T01:31:09.937Z,12.89
2023-03-24T01:31:51.969Z,13.03
2023-03-24T01:32:33.882Z,13.04
2023-03-24T01:33:15.714Z,12.92
2023-03-24T01:33:57.448Z,13.03
2023-03-24T01:34:39.181Z,13.08
2023-03-24T01:35:22.379Z,13.10
2023-03-24T01:36:06.074Z,13.00
2023-03-24T01:36:47.916Z,13.00
2023-03-24T01:37:29.674Z,13.12
2023-03-24T01:38:13.685Z,13.13
2023-03-24T01:38:58.294Z,13.14
2023-03-24T01:39:40.334Z,13.08
2023-03-24T01:40:25.306Z,13.14
2023-03-24T01:41:07.577Z,13.04
2023-03-24T01:41:49.386Z,13.06
2023-03-24T01:42:31.352Z,12.92
2023-03-24T01:43:22.999Z,12.81
2023-03-24T01:44:26.200Z,12.69
2023-03-24T01:45:39.357Z,12.61
2023-03-24T01:46:22.857Z,12.60
2023-03-24T01:47:08.260Z,12.61
2023-03-24T01:47:50.393Z,12.63
2023-03-24T01:48:46.179Z,12.61
2023-03-24T01:49:34.634Z,12.67
2023-03-24T01:50:17.872Z,12.63
2023-03-24T01:51:20.439Z,12.51
2023-03-24T01:52:07.336Z,12.30
2023-03-24T01:52:49.126Z,12.24
2023-03-24T01:53:33.984Z,12.22
2023-03-24T01:54:27.545Z,12.23
2023-03-24T01:55:18.685Z,12.13
2023-03-24T01:56:02.830Z,12.21
2023-03-24T01:56:55.467Z,12.19
2023-03-24T01:57:42.988Z,12.14
2023-03-24T01:58:29.647Z,12.12
2023-03-24T01:59:38.178Z,12.12
2023-03-24T02:00:30.365Z,12.15
2023-03-24T02:02:26.225Z,12.21
2023-03-24T02:03:18.454Z,12.26
2023-03-24T02:04:08.281Z,12.31
2023-03-24T02:04:58.589Z,12.34
2023-03-24T02:05:48.047Z,12.36
2023-03-24T02:06:33.241Z,12.38
2023-03-24T02:07:26.472Z,12.38
2023-03-24T02:08:18.955Z,12.43
2023-03-24T02:09:01.532Z,12.54
2023-03-24T02:09:43.261Z,12.56
2023-03-24T02:10:25.905Z,12.68
2023-03-24T02:11:08.777Z,12.70
2023-03-24T02:12:03.078Z,12.76
2023-03-24T02:12:46.750Z,12.84
2023-03-24T02:13:29.804Z,12.97
2023-03-24T02:14:12.446Z,12.96
2023-03-24T02:14:54.948Z,13.03
2023-03-24T02:15:50.733Z,13.13
2023-03-24T02:16:53.848Z,13.26
2023-03-24T02:17:48.620Z,13.33
2023-03-24T02:18:45.013Z,13.41
2023-03-24T02:19:47.971Z,13.34
2023-03-24T02:20:29.845Z,13.41
2023-03-24T02:21:14.262Z,13.41
2023-03-24T02:22:01.754Z,13.44
2023-03-24T02:22:58.920Z,13.48
2023-03-24T02:23:54.092Z,13.49
2023-03-24T02:25:05.870Z,13.50
2023-03-24T02:26:12.299Z,13.49
2023-03-24T02:27:20.507Z,13.50
2023-03-24T02:28:16.947Z,13.49
2023-03-24T02:29:17.174Z,13.47
2023-03-24T02:30:17.705Z,13.37
2023-03-24T02:31:24.297Z,13.30
2023-03-24T02:32:21.290Z,13.21
2023-03-24T02:33:36.986Z,13.16
2023-03-24T02:34:51.264Z,13.15
2023-03-24T02:36:03.988Z,13.16
2023-03-24T02:37:27.369Z,13.12
2023-03-24T02:38:57.885Z,12.94
2023-03-24T02:39:42.614Z,12.85
2023-03-24T02:40:40.736Z,12.75
2023-03-24T02:41:45.643Z,12.64
2023-03-24T02:42:56.906Z,12.57
2023-03-24T02:43:44.155Z,12.57
2023-03-24T02:44:25.969Z,12.57
2023-03-24T02:45:22.611Z,12.61
2023-03-24T02:46:26.960Z,12.66
2023-03-24T02:47:16.725Z,12.69
2023-03-24T02:48:22.563Z,12.71
2023-03-24T02:49:26.151Z,12.69
2023-03-24T02:50:52.220Z,12.58
2023-03-24T02:51:50.898Z,12.52
2023-03-24T02:52:50.348Z,12.46
2023-03-24T02:53:50.577Z,12.43
2023-03-24T02:54:52.028Z,12.46
2023-03-24T02:55:57.137Z,12.46
2023-03-24T02:56:54.696Z,12.52
2023-03-24T02:58:01.333Z,12.55
2023-03-24T02:59:06.221Z,12.62
2023-03-24T02:59:56.461Z,12.63
2023-03-24T03:01:13.902Z,12.75
2023-03-24T03:02:39.908Z,12.86
2023-03-24T03:03:31.078Z,12.90
2023-03-24T03:04:19.892Z,12.90
2023-03-24T03:05:13.870Z,13.01
2023-03-24T03:06:04.362Z,13.07
2023-03-24T03:06:52.909Z,13.13
2023-03-24T03:07:41.282Z,13.02
2023-03-24T03:08:25.470Z,13.16
2023-03-24T03:09:11.681Z,13.07
2023-03-24T03:10:13.638Z,13.09
2023-03-24T03:10:59.118Z,12.96
2023-03-24T03:11:46.200Z,12.79
2023-03-24T03:12:33.433Z,12.80
2023-03-24T03:13:27.908Z,12.76
2023-03-24T03:14:15.579Z,12.71
2023-03-24T03:15:06.883Z,12.70
2023-03-24T03:15:54.775Z,12.68
2023-03-24T03:16:46.557Z,12.70
2023-03-24T03:17:40.476Z,12.66
2023-03-24T03:18:25.600Z,12.67
2023-03-24T03:19:38.627Z,12.64
2023-03-24T03:20:23.271Z,12.63
2023-03-24T03:21:10.903Z,12.59
2023-03-24T03:21:53.917Z,12.71
2023-03-24T03:22:44.051Z,12.73
2023-03-24T03:23:35.892Z,12.74
2023-03-24T03:24:32.266Z,12.72
2023-03-24T03:25:18.100Z,12.65
2023-03-24T03:26:06.170Z,12.65
2023-03-24T03:26:49.122Z,12.63
2023-03-24T03:27:39.049Z,12.61
2023-03-24T03:28:25.763Z,12.59
2023-03-24T03:29:16.793Z,12.58
2023-03-24T03:30:23.353Z,12.56
2023-03-24T03:31:16.511Z,12.45
2023-03-24T03:32:07.807Z,12.50
2023-03-24T03:33:02.398Z,12.45
2023-03-24T03:33:49.818Z,12.44
2023-03-24T03:34:32.543Z,12.55
2023-03-24T03:35:20.608Z,12.53
2023-03-24T03:36:05.841Z,12.50
2023-03-24T03:37:17.443Z,12.52
2023-03-24T03:38:14.027Z,12.51
2023-03-24T03:39:00.619Z,12.51
2023-03-24T03:39:55.188Z,12.50
2023-03-24T03:40:49.772Z,12.52
2023-03-24T03:41:34.598Z,12.56
2023-03-24T03:42:16.679Z,12.46
2023-03-24T03:42:58.704Z,12.54
2023-03-24T03:43:40.760Z,12.49
2023-03-24T03:44:23.270Z,12.40
2023-03-24T03:45:07.239Z,12.45
2023-03-24T03:45:49.668Z,12.40
2023-03-24T03:46:36.333Z,12.34
2023-03-24T03:47:22.859Z,12.30
2023-03-24T03:48:05.937Z,12.32
2023-03-24T03:48:47.998Z,12.41
2023-03-24T03:49:29.989Z,12.35
2023-03-24T03:50:11.890Z,12.36
2023-03-24T03:51:10.308Z,12.43
2023-03-24T03:51:57.305Z,12.52
2023-03-24T03:52:41.522Z,12.59
2023-03-24T03:53:28.714Z,12.64
2023-03-24T03:54:13.547Z,12.66
2023-03-24T03:54:57.275Z,12.68
2023-03-24T03:55:39.104Z,12.63
2023-03-24T03:56:24.209Z,12.76
2023-03-24T03:57:24.429Z,12.80
2023-03-24T03:58:24.954Z,12.84
2023-03-24T03:59:23.351Z,12.86
2023-03-24T04:00:10.060Z,12.97
2023-03-24T04:00:55.870Z,12.91
2023-03-24T04:01:49.866Z,12.99
2023-03-24T04:03:31.543Z,13.02
2023-03-24T04:04:59.810Z,12.84
2023-03-24T04:06:01.925Z,12.67
2023-03-24T04:07:15.264Z,12.68
2023-03-24T04:08:19.646Z,12.65
2023-03-24T04:09:10.210Z,12.70
2023-03-24T04:09:54.973Z,12.69
2023-03-24T04:10:51.598Z,12.63
2023-03-24T04:11:44.752Z,12.56
2023-03-24T04:13:15.602Z,12.41
2023-03-24T04:14:25.313Z,12.37
2023-03-24T04:15:36.040Z,12.33
2023-03-24T04:17:02.998Z,12.33
2023-03-24T04:18:12.621Z,12.33
2023-03-24T04:19:14.139Z,12.33
2023-03-24T04:19:55.893Z,12.34
2023-03-24T04:20:48.151Z,12.31
2023-03-24T04:21:48.665Z,12.42
2023-03-24T04:22:40.568Z,12.46
2023-03-24T04:23:40.829Z,12.51
2023-03-24T04:24:32.742Z,12.56
2023-03-24T04:25:26.641Z,12.63
2023-03-24T04:26:17.019Z,12.69
2023-03-24T04:27:09.311Z,12.77
2023-03-24T04:28:05.861Z,12.81
2023-03-24T04:29:18.434Z,12.88
2023-03-24T04:30:23.323Z,12.90
2023-03-24T04:31:16.257Z,12.91
2023-03-24T04:32:04.796Z,12.78
2023-03-24T04:32:58.585Z,12.88
2023-03-24T04:33:58.407Z,12.73
2023-03-24T04:34:50.767Z,12.88
2023-03-24T04:36:16.888Z,12.92
2023-03-24T04:37:19.585Z,12.95
2023-03-24T04:38:27.818Z,13.03
2023-03-24T04:39:28.998Z,13.06
2023-03-24T04:40:17.389Z,13.03
2023-03-24T04:41:01.335Z,13.09
2023-03-24T04:41:45.467Z,13.11
2023-03-24T04:42:48.798Z,13.03
2023-03-24T04:43:36.121Z,13.11
2023-03-24T04:44:21.803Z,12.99
2023-03-24T04:45:25.686Z,13.04
2023-03-24T04:46:40.215Z,12.95
2023-03-24T04:47:31.890Z,13.06
2023-03-24T04:48:33.981Z,13.06
2023-03-24T04:49:41.806Z,12.97
2023-03-24T04:50:37.419Z,13.04
2023-03-24T04:51:23.515Z,12.95
2023-03-24T04:52:18.269Z,12.87
2023-03-24T04:53:00.642Z,12.92
2023-03-24T04:53:43.223Z,12.82
2023-03-24T04:54:24.949Z,12.91
2023-03-24T04:55:34.640Z,12.89
2023-03-24T04:56:31.210Z,12.83
2023-03-24T04:57:16.911Z,12.73
2023-03-24T04:58:02.143Z,12.68
2023-03-24T04:58:43.866Z,12.73
2023-03-24T04:59:26.094Z,12.67
2023-03-24T05:00:09.050Z,12.82
2023-03-24T05:00:52.370Z,12.79
2023-03-24T05:01:37.364Z,12.93
2023-03-24T05:02:45.145Z,13.04
2023-03-24T05:03:37.811Z,13.09
2023-03-24T05:04:21.962Z,13.11
2023-03-24T05:05:04.008Z,12.99
2023-03-24T05:05:52.240Z,13.12
2023-03-24T05:06:34.334Z,13.06
2023-03-24T05:07:17.482Z,13.05
2023-03-24T05:08:01.952Z,13.02
2023-03-24T05:08:43.641Z,13.07
2023-03-24T05:09:25.935Z,13.11
2023-03-24T05:10:08.448Z,12.98
2023-03-24T05:10:56.334Z,13.12
2023-03-24T05:11:38.138Z,12.99
2023-03-24T05:12:23.192Z,13.15
2023-03-24T05:13:31.706Z,13.16
2023-03-24T05:14:16.943Z,13.19
2023-03-24T05:14:58.857Z,13.20
2023-03-24T05:15:41.348Z,13.10
2023-03-24T05:16:39.139Z,13.09
2023-03-24T05:17:20.920Z,13.23
2023-03-24T05:18:03.969Z,13.21
2023-03-24T05:18:45.949Z,13.13
2023-03-24T05:19:27.636Z,13.20
2023-03-24T05:20:11.008Z,13.20
2023-03-24T05:20:55.139Z,13.18
2023-03-24T05:21:37.412Z,13.18
2023-03-24T05:22:20.819Z,13.15
2023-03-24T05:23:03.170Z,13.09
2023-03-24T05:23:44.875Z,13.21
2023-03-24T05:24:26.733Z,13.18
2023-03-24T05:25:09.144Z,13.22
2023-03-24T05:25:51.194Z,13.16
2023-03-24T05:26:36.293Z,13.20
2023-03-24T05:27:33.600Z,13.27
2023-03-24T05:28:25.256Z,13.33
2023-03-24T05:29:09.186Z,13.16
2023-03-24T05:29:50.954Z,13.21
2023-03-24T05:30:37.660Z,13.25
2023-03-24T05:31:32.203Z,13.23
2023-03-24T05:32:20.600Z,13.17
2023-03-24T05:33:02.431Z,13.23
2023-03-24T05:33:44.324Z,13.20
2023-03-24T05:34:31.019Z,13.29
2023-03-24T05:35:26.442Z,13.31
2023-03-24T05:36:09.085Z,13.33
2023-03-24T05:36:51.126Z,13.35
2023-03-24T05:37:35.899Z,13.29
2023-03-24T05:38:19.091Z,13.34
2023-03-24T05:39:04.315Z,13.26
2023-03-24T05:39:56.762Z,13.30
2023-03-24T05:40:49.019Z,13.37
2023-03-24T05:41:32.842Z,13.33
2023-03-24T05:42:16.189Z,13.32
2023-03-24T05:42:57.871Z,13.33
2023-03-24T05:43:42.735Z,13.43
2023-03-24T05:44:29.973Z,13.41
2023-03-24T05:45:19.362Z,13.37
2023-03-24T05:46:01.121Z,13.28
2023-03-24T05:46:46.134Z,13.34
2023-03-24T05:47:27.901Z,13.25
2023-03-24T05:48:10.156Z,13.26
2023-03-24T05:49:10.671Z,13.34
2023-03-24T05:49:55.734Z,13.28
2023-03-24T05:50:37.650Z,13.23
2023-03-24T05:51:19.350Z,13.18
2023-03-24T05:52:09.086Z,13.32
2023-03-24T05:52:52.649Z,13.27
2023-03-24T05:54:00.169Z,13.35
2023-03-24T05:54:52.138Z,13.32
2023-03-24T05:55:37.615Z,13.36
2023-03-24T05:56:32.636Z,13.41
2023-03-24T05:57:34.686Z,13.39
2023-03-24T05:58:34.529Z,13.44
2023-03-24T05:59:16.238Z,13.37
2023-03-24T06:00:16.316Z,13.44
2023-03-24T06:01:20.907Z,13.45
2023-03-24T06:02:07.749Z,13.37
2023-03-24T06:03:06.815Z,13.50
2023-03-24T06:03:55.601Z,13.44
2023-03-24T06:04:38.221Z,13.50
2023-03-24T06:05:27.492Z,13.54
2023-03-24T06:06:16.396Z,13.55
2023-03-24T06:07:00.962Z,13.49
2023-03-24T06:07:46.732Z,13.60
2023-03-24T06:08:33.726Z,13.59
2023-03-24T06:09:16.893Z,13.49
2023-03-24T06:10:03.129Z,13.58
2023-03-24T06:10:53.454Z,13.56
2023-03-24T06:11:35.827Z,13.55
2023-03-24T06:12:22.761Z,13.57
2023-03-24T06:13:09.900Z,13.49
2023-03-24T06:13:59.069Z,13.42
2023-03-24T06:14:41.013Z,13.50
2023-03-24T06:15:27.828Z,13.49
2023-03-24T06:16:14.783Z,13.36
2023-03-24T06:17:14.516Z,13.50
2023-03-24T06:17:57.875Z,13.53
2023-03-24T06:18:52.519Z,13.42
2023-03-24T06:20:02.646Z,13.57
2023-03-24T06:21:32.558Z,13.49
2023-03-24T06:22:16.393Z,13.59
2023-03-24T06:22:59.874Z,13.59
2023-03-24T06:23:47.745Z,13.60
2023-03-24T06:24:34.215Z,13.60
2023-03-24T06:25:21.529Z,13.63
2023-03-24T06:26:16.661Z,13.63
2023-03-24T06:27:08.962Z,13.65
2023-03-24T06:27:52.066Z,13.65
2023-03-24T06:28:39.715Z,13.76
2023-03-24T06:29:31.674Z,13.68
2023-03-24T06:30:17.728Z,13.75
2023-03-24T06:30:59.460Z,13.69
2023-03-24T06:31:50.707Z,13.77
2023-03-24T06:32:32.844Z,13.80
2023-03-24T06:33:15.684Z,13.86
2023-03-24T06:33:59.221Z,13.90
2023-03-24T06:34:40.893Z,13.87
2023-03-24T06:35:42.957Z,13.81
2023-03-24T06:36:28.990Z,13.86
2023-03-24T06:37:10.831Z,13.97
2023-03-24T06:37:52.553Z,13.92
2023-03-24T06:38:34.246Z,13.96
2023-03-24T06:39:18.238Z,14.02
2023-03-24T06:40:00.281Z,13.98
2023-03-24T06:40:45.066Z,14.00
2023-03-24T06:41:27.088Z,14.01
2023-03-24T06:42:12.895Z,14.01
2023-03-24T06:42:54.593Z,14.00
2023-03-24T06:43:36.872Z,13.93
2023-03-24T06:44:18.619Z,13.90
2023-03-24T06:45:00.447Z,13.87
2023-03-24T06:45:44.505Z,13.93
2023-03-24T06:46:32.800Z,13.94
2023-03-24T06:47:14.574Z,13.89
2023-03-24T06:47:56.709Z,13.77
2023-03-24T06:48:41.902Z,13.75
2023-03-24T06:49:24.131Z,13.91
2023-03-24T06:50:07.075Z,13.90
2023-03-24T06:50:51.762Z,13.84
2023-03-24T06:51:33.489Z,13.89
2023-03-24T06:52:15.658Z,13.84
2023-03-24T06:52:57.561Z,13.91
2023-03-24T06:53:41.282Z,13.86
2023-03-24T06:54:23.032Z,13.81
2023-03-24T06:55:06.140Z,13.92
2023-03-24T06:55:51.490Z,13.95
2023-03-24T06:56:35.211Z,13.88
2023-03-24T06:57:17.944Z,13.93
2023-03-24T06:58:18.541Z,13.84
2023-03-24T06:59:23.693Z,13.94
2023-03-24T07:00:06.822Z,13.96
2023-03-24T07:00:53.775Z,13.89
2023-03-24T07:01:55.900Z,13.82
2023-03-24T07:02:40.488Z,13.93
2023-03-24T07:03:23.486Z,13.82
2023-03-24T07:04:25.735Z,13.88
2023-03-24T07:05:11.034Z,13.85
2023-03-24T07:05:57.183Z,13.82
2023-03-24T07:06:46.669Z,13.83
2023-03-24T07:08:50.041Z,13.85
2023-03-24T07:09:32.650Z,13.92
2023-03-24T07:10:14.636Z,13.88
2023-03-24T07:10:57.058Z,13.93
2023-03-24T07:11:39.620Z,13.89
2023-03-24T07:12:21.539Z,13.87
2023-03-24T07:13:04.286Z,13.98
2023-03-24T07:13:47.892Z,13.96
2023-03-24T07:14:30.822Z,13.86
2023-03-24T07:15:13.159Z,13.94
2023-03-24T07:15:56.581Z,13.85
2023-03-24T07:16:38.436Z,13.92
2023-03-24T07:17:42.880Z,13.92
2023-03-24T07:18:47.186Z,13.94
2023-03-24T07:19:29.494Z,13.88
2023-03-24T07:20:29.793Z,13.96
2023-03-24T07:21:28.833Z,13.96
2023-03-24T07:22:10.547Z,13.87
2023-03-24T07:23:13.082Z,13.95
2023-03-24T07:24:11.418Z,13.86
2023-03-24T07:25:19.948Z,13.89
2023-03-24T07:26:07.346Z,13.84
2023-03-24T07:27:05.586Z,13.98
2023-03-24T07:27:49.710Z,14.00
2023-03-24T07:28:32.185Z,13.90
2023-03-24T07:29:14.128Z,14.01
2023-03-24T07:30:39.938Z,14.08
2023-03-24T07:31:24.629Z,14.01
2023-03-24T07:32:13.206Z,14.11
2023-03-24T07:32:56.725Z,14.13
2023-03-24T07:33:38.540Z,14.09
2023-03-24T07:34:21.160Z,14.18
2023-03-24T07:35:04.240Z,14.21
2023-03-24T07:35:46.511Z,14.19
2023-03-24T07:36:28.578Z,14.12
2023-03-24T07:37:11.917Z,14.16
2023-03-24T07:37:57.943Z,14.17
2023-03-24T07:38:39.790Z,14.13
2023-03-24T07:39:26.280Z,14.06
2023-03-24T07:40:12.059Z,14.16
2023-03-24T07:40:54.006Z,14.14
2023-03-24T07:41:35.761Z,14.10
2023-03-24T07:42:23.108Z,14.06
2023-03-24T07:43:37.058Z,14.19
2023-03-24T07:44:32.153Z,14.13
2023-03-24T07:45:15.569Z,14.24
2023-03-24T07:45:57.286Z,14.11
2023-03-24T07:46:43.261Z,14.28
2023-03-24T07:47:27.518Z,14.19
2023-03-24T07:48:10.636Z,14.23
2023-03-24T07:48:53.107Z,14.31
2023-03-24T07:49:35.205Z,14.25
2023-03-24T07:50:20.567Z,14.22
2023-03-24T07:51:02.283Z,14.03
2023-03-24T07:52:09.896Z,14.21
2023-03-24T07:53:04.600Z,14.25
2023-03-24T07:53:47.714Z,14.38
2023-03-24T07:54:36.668Z,14.39
2023-03-24T07:55:18.408Z,14.46
2023-03-24T07:56:10.232Z,14.51
2023-03-24T07:56:59.311Z,14.55
2023-03-24T07:57:42.201Z,14.53
2023-03-24T07:58:23.937Z,14.57
2023-03-24T07:59:28.680Z,14.67
2023-03-24T08:00:32.914Z,14.64
2023-03-24T08:01:25.468Z,14.78
2023-03-24T08:02:21.217Z,14.82
2023-03-24T08:03:38.717Z,14.88
2023-03-24T08:04:35.131Z,14.80
2023-03-24T08:05:24.852Z,14.86
2023-03-24T08:06:14.792Z,14.96
2023-03-24T08:07:08.351Z,14.88
2023-03-24T08:07:55.606Z,15.04
2023-03-24T08:08:37.933Z,14.94
2023-03-24T08:09:20.037Z,15.09
2023-03-24T08:10:01.731Z,15.12
2023-03-24T08:10:45.963Z,15.07
2023-03-24T08:11:27.956Z,15.17
2023-03-24T08:12:17.784Z,15.14
2023-03-24T08:13:02.493Z,15.17
2023-03-24T08:13:44.281Z,15.26
2023-03-24T08:14:26.359Z,15.21
2023-03-24T08:15:09.463Z,15.20
2023-03-24T08:15:53.191Z,15.10
2023-03-24T08:16:34.882Z,14.99
2023-03-24T08:17:16.528Z,15.06
2023-03-24T08:17:58.379Z,14.97
2023-03-24T08:18:40.327Z,15.06
2023-03-24T08:19:22.099Z,14.97
2023-03-24T08:20:09.170Z,14.93
2023-03-24T08:20:58.503Z,15.02
2023-03-24T08:21:40.163Z,14.92
2023-03-24T08:22:21.805Z,14.92
2023-03-24T08:23:04.845Z,14.94
2023-03-24T08:23:46.771Z,14.89
2023-03-24T08:24:28.435Z,14.93
2023-03-24T08:25:12.813Z,14.97
2023-03-24T08:25:54.647Z,14.99
2023-03-24T08:26:36.412Z,15.01
2023-03-24T08:27:18.181Z,15.01
2023-03-24T08:27:59.902Z,14.98
2023-03-24T08:28:42.568Z,15.07
2023-03-24T08:29:24.459Z,15.09
2023-03-24T08:30:08.785Z,15.09
2023-03-24T08:30:50.865Z,15.02
2023-03-24T08:31:34.225Z,15.09
2023-03-24T08:32:16.001Z,15.01
2023-03-24T08:32:59.927Z,15.06
2023-03-24T08:33:41.758Z,15.02
2023-03-24T08:34:24.934Z,14.94
2023-03-24T08:35:07.121Z,14.87
2023-03-24T08:35:49.172Z,14.84
2023-03-24T08:36:31.779Z,14.92
2023-03-24T08:37:13.543Z,14.90
2023-03-24T08:38:06.056Z,14.88
2023-03-24T08:38:51.723Z,14.87
2023-03-24T08:39:35.903Z,14.82
2023-03-24T08:40:23.159Z,14.87
2023-03-24T08:41:06.973Z,14.85
2023-03-24T08:41:50.142Z,14.74
2023-03-24T08:42:31.923Z,14.83
2023-03-24T08:43:15.933Z,14.90
2023-03-24T08:43:57.639Z,14.79
2023-03-24T08:44:39.400Z,14.94
2023-03-24T08:45:23.796Z,14.95
2023-03-24T08:46:09.640Z,14.92
2023-03-24T08:46:52.470Z,14.80
2023-03-24T08:47:34.550Z,14.79
2023-03-24T08:48:16.510Z,14.81
2023-03-24T08:48:59.701Z,14.81
2023-03-24T08:49:41.400Z,14.76
2023-03-24T08:50:27.919Z,14.84
2023-03-24T08:51:14.939Z,14.90
2023-03-24T08:51:56.665Z,14.83
2023-03-24T08:52:38.604Z,14.81
2023-03-24T08:53:20.687Z,14.93
2023-03-24T08:54:03.871Z,14.82
2023-03-24T08:54:45.729Z,14.96
2023-03-24T08:55:27.487Z,14.96
2023-03-24T08:56:10.410Z,14.97
2023-03-24T08:56:52.268Z,14.95
2023-03-24T08:57:34.282Z,14.90
2023-03-24T08:58:18.844Z,14.76
2023-03-24T08:59:00.628Z,14.72
2023-03-24T08:59:42.580Z,14.84
2023-03-24T09:00:24.635Z,14.82
2023-03-24T09:01:06.469Z,14.79
2023-03-24T09:01:48.268Z,14.70
2023-03-24T09:02:30.085Z,14.81
2023-03-24T09:03:18.710Z,14.83
2023-03-24T09:04:00.774Z,14.72
2023-03-24T09:04:42.999Z,14.84
2023-03-24T09:05:40.822Z,14.84
2023-03-24T09:06:27.319Z,14.87
2023-03-24T09:07:10.451Z,14.92
2023-03-24T09:07:52.580Z,14.90
2023-03-24T09:08:34.298Z,14.82
2023-03-24T09:09:16.240Z,14.97
2023-03-24T09:09:57.987Z,14.96
2023-03-24T09:10:40.835Z,14.92
2023-03-24T09:11:22.760Z,14.99
2023-03-24T09:12:04.660Z,14.91
2023-03-24T09:12:46.973Z,14.93
2023-03-24T09:13:28.832Z,15.02
2023-03-24T09:14:10.749Z,14.90
2023-03-24T09:14:52.543Z,14.90
2023-03-24T09:15:34.397Z,15.08
2023-03-24T09:16:17.745Z,15.09
2023-03-24T09:16:59.481Z,15.12
2023-03-24T09:17:44.478Z,15.06
2023-03-24T09:18:26.490Z,15.13
2023-03-24T09:19:08.488Z,15.11
2023-03-24T09:19:50.180Z,15.09
2023-03-24T09:20:31.994Z,15.17
2023-03-24T09:21:13.635Z,15.17
2023-03-24T09:21:55.330Z,15.14
2023-03-24T09:22:42.784Z,15.24
2023-03-24T09:23:29.307Z,15.11
2023-03-24T09:24:10.953Z,15.20
2023-03-24T09:24:53.385Z,15.15
2023-03-24T09:25:35.036Z,15.13
2023-03-24T09:26:19.491Z,15.20
2023-03-24T09:27:01.242Z,15.14
2023-03-24T09:27:43.186Z,15.22
2023-03-24T09:28:24.939Z,15.18
2023-03-24T09:29:07.495Z,14.96
2023-03-24T09:29:49.175Z,14.97
2023-03-24T09:30:32.183Z,14.96
2023-03-24T09:31:15.953Z,15.09
2023-03-24T09:31:57.871Z,15.09
2023-03-24T09:32:39.831Z,15.03
2023-03-24T09:33:21.750Z,15.13
2023-03-24T09:34:04.286Z,15.06
2023-03-24T09:34:46.193Z,15.15
2023-03-24T09:35:28.516Z,15.05
2023-03-24T09:36:11.085Z,15.08
2023-03-24T09:36:55.465Z,15.12
2023-03-24T09:37:38.992Z,15.22
2023-03-24T09:38:21.530Z,15.25
2023-03-24T09:39:03.455Z,15.29
2023-03-24T09:39:45.449Z,15.25
2023-03-24T09:40:32.393Z,15.26
2023-03-24T09:41:26.519Z,15.28
2023-03-24T09:42:19.604Z,15.38
2023-03-24T09:43:09.576Z,15.49
2023-03-24T09:43:54.111Z,15.55
2023-03-24T09:44:46.451Z,15.68
2023-03-24T09:45:33.212Z,15.67
2023-03-24T09:46:26.836Z,15.66
2023-03-24T09:47:14.634Z,15.66
2023-03-24T09:48:19.552Z,15.46
2023-03-24T09:49:01.445Z,15.62
2023-03-24T09:49:44.561Z,15.52
2023-03-24T09:50:35.353Z,15.50
2023-03-24T09:51:27.990Z,15.52
2023-03-24T09:52:13.776Z,15.40
2023-03-24T09:53:10.801Z,15.25
2023-03-24T09:54:07.696Z,15.36
2023-03-24T09:54:58.932Z,15.37
2023-03-24T09:55:41.518Z,15.29
2023-03-24T09:56:24.007Z,15.37
2023-03-24T09:57:11.660Z,15.30
2023-03-24T09:57:58.991Z,15.41
2023-03-24T09:58:41.690Z,15.39
2023-03-24T09:59:29.299Z,15.44
2023-03-24T10:00:28.027Z,15.42
2023-03-24T10:01:14.350Z,15.31
2023-03-24T10:01:57.882Z,15.44
2023-03-24T10:02:40.299Z,15.36
2023-03-24T10:03:23.594Z,15.34
2023-03-24T10:04:14.876Z,15.03
2023-03-24T10:04:56.938Z,15.35
2023-03-24T10:05:48.426Z,15.38
2023-03-24T10:06:33.602Z,15.51
2023-03-24T10:07:17.923Z,15.55
2023-03-24T10:08:02.817Z,15.60
2023-03-24T10:08:52.555Z,15.45
2023-03-24T10:09:36.159Z,15.62
2023-03-24T10:10:36.543Z,15.64
2023-03-24T10:11:29.493Z,15.57
2023-03-24T10:12:25.993Z,15.17
2023-03-24T10:13:16.600Z,15.41
2023-03-24T10:14:19.327Z,15.31
2023-03-24T10:15:13.439Z,15.40
2023-03-24T10:16:07.688Z,15.37
2023-03-24T10:17:01.308Z,15.34
2023-03-24T10:17:45.670Z,15.30
2023-03-24T10:18:53.674Z,15.33
2023-03-24T10:19:44.487Z,15.33
2023-03-24T10:20:55.280Z,15.41
2023-03-24T10:21:41.547Z,15.34
2023-03-24T10:22:44.503Z,15.49
2023-03-24T10:23:51.373Z,15.50
2023-03-24T10:24:45.308Z,15.43
2023-03-24T10:25:46.982Z,15.32